sensor_id;sensor_type;location;lat;lon;timestamp;temperature;humidity
40600;DHT22;26309;50.924;4.754;2022-12-07T00:02:06;6.60;99.90
40600;DHT22;26309;50.924;4.754;2022-12-07T00:04:31;6.40;99.90
40600;DHT22;26309;50.924;4.754;2022-12-07T00:06:57;6.40;99.90
40600;DHT22;26309;50.924;4.754;2022-12-07T00:09:23;6.50;99.90
40600;DHT22;26309;50.924;4.754;2022-12-07T00:11:52;6.30;99.90
40600;DHT22;26309;50.924;4.754;2022-12-07T00:14:18;6.20;99.90
40600;DHT22;26309;50.924;4.754;2022-12-07T00:16:45;6.00;99.90
40600;DHT22;26309;50.924;4.754;2022-12-07T00:19:13;5.90;99.90
40600;DHT22;26309;50.924;4.754;2022-12-07T00:21:39;6.00;99.90
40600;DHT22;26309;50.924;4.754;2022-12-07T00:24:05;6.00;99.90
40600;DHT22;26309;50.924;4.754;2022-12-07T00:26:37;5.90;99.90
40600;DHT22;26309;50.924;4.754;2022-12-07T00:29:09;5.90;99.90
40600;DHT22;26309;50.924;4.754;2022-12-07T00:31:38;5.90;99.90
40600;DHT22;26309;50.924;4.754;2022-12-07T00:34:05;5.90;99.90
40600;DHT22;26309;50.924;4.754;2022-12-07T00:36:31;5.90;99.90
40600;DHT22;26309;50.924;4.754;2022-12-07T00:38:58;5.70;99.90
40600;DHT22;26309;50.924;4.754;2022-12-07T00:41:26;5.80;99.90
40600;DHT22;26309;50.924;4.754;2022-12-07T00:43:53;5.80;99.90
40600;DHT22;26309;50.924;4.754;2022-12-07T00:46:20;5.80;99.90
40600;DHT22;26309;50.924;4.754;2022-12-07T00:48:47;5.70;99.90
40600;DHT22;26309;50.924;4.754;2022-12-07T00:51:15;5.80;99.90
40600;DHT22;26309;50.924;4.754;2022-12-07T00:53:41;5.70;99.90
40600;DHT22;26309;50.924;4.754;2022-12-07T00:56:08;5.70;99.90
40600;DHT22;26309;50.924;4.754;2022-12-07T00:58:35;5.70;99.90
40600;DHT22;26309;50.924;4.754;2022-12-07T01:01:02;5.70;99.90
40600;DHT22;26309;50.924;4.754;2022-12-07T01:03:28;5.70;99.90
40600;DHT22;26309;50.924;4.754;2022-12-07T01:05:55;5.80;99.90
40600;DHT22;26309;50.924;4.754;2022-12-07T01:08:22;5.70;99.90
40600;DHT22;26309;50.924;4.754;2022-12-07T01:10:49;5.80;99.90
40600;DHT22;26309;50.924;4.754;2022-12-07T01:13:15;5.80;99.90
40600;DHT22;26309;50.924;4.754;2022-12-07T01:15:42;5.70;99.90
40600;DHT22;26309;50.924;4.754;2022-12-07T01:18:08;5.60;99.90
40600;DHT22;26309;50.924;4.754;2022-12-07T01:20:35;5.60;99.90
40600;DHT22;26309;50.924;4.754;2022-12-07T01:23:01;5.60;99.90
40600;DHT22;26309;50.924;4.754;2022-12-07T01:25:27;5.70;99.90
40600;DHT22;26309;50.924;4.754;2022-12-07T01:27:53;5.60;99.90
40600;DHT22;26309;50.924;4.754;2022-12-07T01:30:19;5.70;99.90
40600;DHT22;26309;50.924;4.754;2022-12-07T01:32:44;5.90;99.90
40600;DHT22;26309;50.924;4.754;2022-12-07T01:35:11;6.00;99.90
40600;DHT22;26309;50.924;4.754;2022-12-07T01:37:38;6.10;99.90
40600;DHT22;26309;50.924;4.754;2022-12-07T01:40:07;6.00;99.90
40600;DHT22;26309;50.924;4.754;2022-12-07T01:42:34;6.00;99.90
40600;DHT22;26309;50.924;4.754;2022-12-07T01:47:51;5.80;99.90
40600;DHT22;26309;50.924;4.754;2022-12-07T01:50:20;5.80;99.90
40600;DHT22;26309;50.924;4.754;2022-12-07T01:52:49;5.80;99.90
40600;DHT22;26309;50.924;4.754;2022-12-07T01:55:16;5.90;99.90
40600;DHT22;26309;50.924;4.754;2022-12-07T01:57:47;5.90;99.90
40600;DHT22;26309;50.924;4.754;2022-12-07T02:00:14;5.90;99.90
40600;DHT22;26309;50.924;4.754;2022-12-07T02:05:27;5.70;99.90
40600;DHT22;26309;50.924;4.754;2022-12-07T02:07:55;5.90;99.90
40600;DHT22;26309;50.924;4.754;2022-12-07T02:10:28;6.00;99.90
40600;DHT22;26309;50.924;4.754;2022-12-07T02:13:11;5.90;99.90
40600;DHT22;26309;50.924;4.754;2022-12-07T02:18:20;5.90;99.90
40600;DHT22;26309;50.924;4.754;2022-12-07T02:24:31;6.00;99.90
40600;DHT22;26309;50.924;4.754;2022-12-07T02:27:10;5.80;99.90
40600;DHT22;26309;50.924;4.754;2022-12-07T02:40:35;5.30;99.90
40600;DHT22;26309;50.924;4.754;2022-12-07T02:43:27;5.60;99.90
40600;DHT22;26309;50.924;4.754;2022-12-07T02:45:57;5.50;99.90
40600;DHT22;26309;50.924;4.754;2022-12-07T02:48:26;5.40;99.90
40600;DHT22;26309;50.924;4.754;2022-12-07T02:50:54;5.40;99.90
40600;DHT22;26309;50.924;4.754;2022-12-07T02:53:42;5.30;99.90
40600;DHT22;26309;50.924;4.754;2022-12-07T03:13:15;5.60;99.90
40600;DHT22;26309;50.924;4.754;2022-12-07T03:15:47;5.60;99.90
40600;DHT22;26309;50.924;4.754;2022-12-07T03:18:20;5.50;99.90
40600;DHT22;26309;50.924;4.754;2022-12-07T03:20:48;5.60;99.90
40600;DHT22;26309;50.924;4.754;2022-12-07T03:23:16;5.50;99.90
40600;DHT22;26309;50.924;4.754;2022-12-07T03:25:47;5.40;99.90
40600;DHT22;26309;50.924;4.754;2022-12-07T03:28:17;5.60;99.90
40600;DHT22;26309;50.924;4.754;2022-12-07T03:30:49;5.40;99.90
40600;DHT22;26309;50.924;4.754;2022-12-07T03:34:22;5.40;99.90
40600;DHT22;26309;50.924;4.754;2022-12-07T03:36:31;5.50;99.90
40600;DHT22;26309;50.924;4.754;2022-12-07T03:39:26;5.50;99.90
40600;DHT22;26309;50.924;4.754;2022-12-07T03:41:55;5.60;99.90
40600;DHT22;26309;50.924;4.754;2022-12-07T03:44:22;5.50;99.90
40600;DHT22;26309;50.924;4.754;2022-12-07T03:49:31;5.70;99.90
40600;DHT22;26309;50.924;4.754;2022-12-07T03:54:34;6.00;99.90
40600;DHT22;26309;50.924;4.754;2022-12-07T03:57:02;6.00;99.90
40600;DHT22;26309;50.924;4.754;2022-12-07T03:59:30;5.90;99.90
40600;DHT22;26309;50.924;4.754;2022-12-07T04:02:01;6.00;99.90
40600;DHT22;26309;50.924;4.754;2022-12-07T04:04:27;5.90;99.90
40600;DHT22;26309;50.924;4.754;2022-12-07T04:06:54;5.90;99.90
40600;DHT22;26309;50.924;4.754;2022-12-07T04:09:20;5.80;99.90
40600;DHT22;26309;50.924;4.754;2022-12-07T04:11:45;5.70;99.90
40600;DHT22;26309;50.924;4.754;2022-12-07T04:14:11;5.60;99.90
40600;DHT22;26309;50.924;4.754;2022-12-07T04:16:56;5.60;99.90
40600;DHT22;26309;50.924;4.754;2022-12-07T04:19:26;5.60;99.90
40600;DHT22;26309;50.924;4.754;2022-12-07T04:21:53;5.40;99.90
40600;DHT22;26309;50.924;4.754;2022-12-07T04:24:19;5.20;99.90
40600;DHT22;26309;50.924;4.754;2022-12-07T04:26:45;5.20;99.90
40600;DHT22;26309;50.924;4.754;2022-12-07T04:29:12;4.90;99.90
40600;DHT22;26309;50.924;4.754;2022-12-07T04:31:38;4.80;99.90
40600;DHT22;26309;50.924;4.754;2022-12-07T04:34:06;4.70;99.90
40600;DHT22;26309;50.924;4.754;2022-12-07T04:36:32;4.70;99.90
40600;DHT22;26309;50.924;4.754;2022-12-07T04:38:58;4.70;99.90
40600;DHT22;26309;50.924;4.754;2022-12-07T04:41:24;4.80;99.90
40600;DHT22;26309;50.924;4.754;2022-12-07T04:43:59;4.80;99.90
40600;DHT22;26309;50.924;4.754;2022-12-07T04:46:26;4.90;99.90
40600;DHT22;26309;50.924;4.754;2022-12-07T04:48:53;4.80;99.90
40600;DHT22;26309;50.924;4.754;2022-12-07T04:51:25;4.90;99.90
40600;DHT22;26309;50.924;4.754;2022-12-07T04:53:52;4.90;99.90
40600;DHT22;26309;50.924;4.754;2022-12-07T04:56:18;4.80;99.90
40600;DHT22;26309;50.924;4.754;2022-12-07T04:58:45;4.80;99.90
40600;DHT22;26309;50.924;4.754;2022-12-07T05:01:12;4.80;99.90
40600;DHT22;26309;50.924;4.754;2022-12-07T05:03:38;4.50;99.90
40600;DHT22;26309;50.924;4.754;2022-12-07T05:06:05;4.50;99.90
40600;DHT22;26309;50.924;4.754;2022-12-07T05:08:32;4.40;99.90
40600;DHT22;26309;50.924;4.754;2022-12-07T05:10:59;4.30;99.90
40600;DHT22;26309;50.924;4.754;2022-12-07T05:13:24;4.20;99.90
40600;DHT22;26309;50.924;4.754;2022-12-07T05:15:50;4.40;99.90
40600;DHT22;26309;50.924;4.754;2022-12-07T05:18:16;4.40;99.90
40600;DHT22;26309;50.924;4.754;2022-12-07T05:20:43;4.40;99.90
40600;DHT22;26309;50.924;4.754;2022-12-07T05:23:09;4.40;99.90
40600;DHT22;26309;50.924;4.754;2022-12-07T05:25:35;4.50;99.90
40600;DHT22;26309;50.924;4.754;2022-12-07T05:28:02;4.60;99.90
40600;DHT22;26309;50.924;4.754;2022-12-07T05:30:28;4.70;99.90
40600;DHT22;26309;50.924;4.754;2022-12-07T05:32:55;4.70;99.90
40600;DHT22;26309;50.924;4.754;2022-12-07T05:35:21;4.70;99.90
40600;DHT22;26309;50.924;4.754;2022-12-07T05:37:47;4.60;99.90
40600;DHT22;26309;50.924;4.754;2022-12-07T05:40:14;4.40;99.90
40600;DHT22;26309;50.924;4.754;2022-12-07T05:42:41;4.50;99.90
40600;DHT22;26309;50.924;4.754;2022-12-07T05:45:08;4.70;99.90
40600;DHT22;26309;50.924;4.754;2022-12-07T05:47:34;5.10;99.90
40600;DHT22;26309;50.924;4.754;2022-12-07T05:50:01;5.10;99.90
40600;DHT22;26309;50.924;4.754;2022-12-07T05:52:27;5.20;99.90
40600;DHT22;26309;50.924;4.754;2022-12-07T05:54:53;5.20;99.90
40600;DHT22;26309;50.924;4.754;2022-12-07T05:57:19;5.10;99.90
40600;DHT22;26309;50.924;4.754;2022-12-07T05:59:44;5.00;99.90
40600;DHT22;26309;50.924;4.754;2022-12-07T06:02:13;4.90;99.90
40600;DHT22;26309;50.924;4.754;2022-12-07T06:04:44;4.90;99.90
40600;DHT22;26309;50.924;4.754;2022-12-07T06:07:12;5.00;99.90
40600;DHT22;26309;50.924;4.754;2022-12-07T06:09:39;5.00;99.90
40600;DHT22;26309;50.924;4.754;2022-12-07T06:12:05;5.10;99.90
40600;DHT22;26309;50.924;4.754;2022-12-07T06:14:49;5.00;99.90
40600;DHT22;26309;50.924;4.754;2022-12-07T06:17:15;4.90;99.90
40600;DHT22;26309;50.924;4.754;2022-12-07T06:19:41;5.00;99.90
40600;DHT22;26309;50.924;4.754;2022-12-07T06:22:08;5.00;99.90
40600;DHT22;26309;50.924;4.754;2022-12-07T06:24:35;5.00;99.90
40600;DHT22;26309;50.924;4.754;2022-12-07T06:27:01;5.00;99.90
40600;DHT22;26309;50.924;4.754;2022-12-07T06:29:30;5.00;99.90
40600;DHT22;26309;50.924;4.754;2022-12-07T06:31:56;5.00;99.90
40600;DHT22;26309;50.924;4.754;2022-12-07T06:34:23;5.10;99.90
40600;DHT22;26309;50.924;4.754;2022-12-07T06:36:50;5.10;99.90
40600;DHT22;26309;50.924;4.754;2022-12-07T06:39:19;5.00;99.90
40600;DHT22;26309;50.924;4.754;2022-12-07T06:41:46;5.00;99.90
40600;DHT22;26309;50.924;4.754;2022-12-07T06:44:12;4.90;99.90
40600;DHT22;26309;50.924;4.754;2022-12-07T06:46:38;4.90;99.90
40600;DHT22;26309;50.924;4.754;2022-12-07T06:49:04;5.00;99.90
40600;DHT22;26309;50.924;4.754;2022-12-07T06:51:32;5.00;99.90
40600;DHT22;26309;50.924;4.754;2022-12-07T06:53:58;5.00;99.90
40600;DHT22;26309;50.924;4.754;2022-12-07T06:56:24;5.00;99.90
40600;DHT22;26309;50.924;4.754;2022-12-07T06:58:50;4.90;99.90
40600;DHT22;26309;50.924;4.754;2022-12-07T07:01:17;4.80;99.90
40600;DHT22;26309;50.924;4.754;2022-12-07T07:03:45;4.90;99.90
40600;DHT22;26309;50.924;4.754;2022-12-07T07:06:12;5.00;99.90
40600;DHT22;26309;50.924;4.754;2022-12-07T07:08:39;5.10;99.90
40600;DHT22;26309;50.924;4.754;2022-12-07T07:11:06;5.00;99.90
40600;DHT22;26309;50.924;4.754;2022-12-07T07:13:32;5.00;99.90
40600;DHT22;26309;50.924;4.754;2022-12-07T07:15:59;5.00;99.90
40600;DHT22;26309;50.924;4.754;2022-12-07T07:18:25;5.10;99.90
40600;DHT22;26309;50.924;4.754;2022-12-07T07:20:52;5.00;99.90
40600;DHT22;26309;50.924;4.754;2022-12-07T07:23:18;5.10;99.90
40600;DHT22;26309;50.924;4.754;2022-12-07T07:25:45;5.10;99.90
40600;DHT22;26309;50.924;4.754;2022-12-07T07:28:11;5.20;99.90
40600;DHT22;26309;50.924;4.754;2022-12-07T07:30:37;5.30;99.90
40600;DHT22;26309;50.924;4.754;2022-12-07T07:33:03;5.20;99.90
40600;DHT22;26309;50.924;4.754;2022-12-07T07:35:31;5.40;99.90
40600;DHT22;26309;50.924;4.754;2022-12-07T07:37:57;5.30;99.90
40600;DHT22;26309;50.924;4.754;2022-12-07T07:40:24;5.50;99.90
40600;DHT22;26309;50.924;4.754;2022-12-07T07:42:50;5.10;99.90
40600;DHT22;26309;50.924;4.754;2022-12-07T07:45:18;5.00;99.90
40600;DHT22;26309;50.924;4.754;2022-12-07T07:47:44;4.90;99.90
40600;DHT22;26309;50.924;4.754;2022-12-07T07:50:10;4.90;99.90
40600;DHT22;26309;50.924;4.754;2022-12-07T07:52:36;4.80;99.90
40600;DHT22;26309;50.924;4.754;2022-12-07T07:55:02;4.70;99.90
40600;DHT22;26309;50.924;4.754;2022-12-07T07:57:28;4.70;99.90
40600;DHT22;26309;50.924;4.754;2022-12-07T07:59:54;4.70;99.90
40600;DHT22;26309;50.924;4.754;2022-12-07T08:02:21;4.80;99.90
40600;DHT22;26309;50.924;4.754;2022-12-07T08:04:47;4.80;99.90
40600;DHT22;26309;50.924;4.754;2022-12-07T08:07:14;4.60;99.90
40600;DHT22;26309;50.924;4.754;2022-12-07T08:09:41;4.60;99.90
40600;DHT22;26309;50.924;4.754;2022-12-07T08:12:07;4.50;99.90
40600;DHT22;26309;50.924;4.754;2022-12-07T08:14:33;4.50;99.90
40600;DHT22;26309;50.924;4.754;2022-12-07T08:16:59;4.50;99.90
40600;DHT22;26309;50.924;4.754;2022-12-07T08:19:26;4.60;99.90
40600;DHT22;26309;50.924;4.754;2022-12-07T08:21:52;4.70;99.90
40600;DHT22;26309;50.924;4.754;2022-12-07T08:24:18;4.70;99.90
40600;DHT22;26309;50.924;4.754;2022-12-07T08:26:44;4.80;99.90
40600;DHT22;26309;50.924;4.754;2022-12-07T08:29:10;5.00;99.90
40600;DHT22;26309;50.924;4.754;2022-12-07T08:31:36;5.00;99.90
40600;DHT22;26309;50.924;4.754;2022-12-07T08:34:02;5.00;99.90
40600;DHT22;26309;50.924;4.754;2022-12-07T08:36:28;5.10;99.90
40600;DHT22;26309;50.924;4.754;2022-12-07T08:38:54;5.40;99.90
40600;DHT22;26309;50.924;4.754;2022-12-07T08:41:20;5.50;99.90
40600;DHT22;26309;50.924;4.754;2022-12-07T08:43:46;5.40;99.90
40600;DHT22;26309;50.924;4.754;2022-12-07T08:51:18;5.50;99.90
40600;DHT22;26309;50.924;4.754;2022-12-07T08:53:45;5.60;99.90
40600;DHT22;26309;50.924;4.754;2022-12-07T08:56:11;5.70;99.90
40600;DHT22;26309;50.924;4.754;2022-12-07T08:58:38;5.80;99.90
40600;DHT22;26309;50.924;4.754;2022-12-07T09:01:05;5.90;99.90
40600;DHT22;26309;50.924;4.754;2022-12-07T09:03:31;6.00;99.90
40600;DHT22;26309;50.924;4.754;2022-12-07T09:05:58;6.00;99.90
40600;DHT22;26309;50.924;4.754;2022-12-07T09:08:33;5.90;99.90
40600;DHT22;26309;50.924;4.754;2022-12-07T09:11:03;5.80;99.90
40600;DHT22;26309;50.924;4.754;2022-12-07T09:13:30;5.80;99.90
40600;DHT22;26309;50.924;4.754;2022-12-07T09:15:56;5.90;99.90
40600;DHT22;26309;50.924;4.754;2022-12-07T09:18:23;5.90;99.90
40600;DHT22;26309;50.924;4.754;2022-12-07T09:20:50;5.90;99.90
40600;DHT22;26309;50.924;4.754;2022-12-07T09:23:16;6.00;99.90
40600;DHT22;26309;50.924;4.754;2022-12-07T09:25:42;6.10;99.90
40600;DHT22;26309;50.924;4.754;2022-12-07T09:28:08;6.20;99.90
40600;DHT22;26309;50.924;4.754;2022-12-07T09:30:35;6.10;99.90
40600;DHT22;26309;50.924;4.754;2022-12-07T09:33:01;6.10;99.90
40600;DHT22;26309;50.924;4.754;2022-12-07T09:35:27;6.20;99.90
40600;DHT22;26309;50.924;4.754;2022-12-07T09:37:54;6.30;99.90
40600;DHT22;26309;50.924;4.754;2022-12-07T09:40:21;6.40;99.90
40600;DHT22;26309;50.924;4.754;2022-12-07T09:42:53;6.60;99.90
40600;DHT22;26309;50.924;4.754;2022-12-07T09:45:34;6.70;99.90
40600;DHT22;26309;50.924;4.754;2022-12-07T09:48:01;6.80;99.90
40600;DHT22;26309;50.924;4.754;2022-12-07T09:50:29;7.00;99.90
40600;DHT22;26309;50.924;4.754;2022-12-07T09:53:14;7.20;99.90
40600;DHT22;26309;50.924;4.754;2022-12-07T09:55:41;7.10;99.90
40600;DHT22;26309;50.924;4.754;2022-12-07T09:58:21;7.20;99.90
40600;DHT22;26309;50.924;4.754;2022-12-07T10:00:50;7.00;99.90
40600;DHT22;26309;50.924;4.754;2022-12-07T10:03:16;7.20;99.90
40600;DHT22;26309;50.924;4.754;2022-12-07T10:05:49;7.20;99.90
40600;DHT22;26309;50.924;4.754;2022-12-07T10:08:17;7.20;99.90
40600;DHT22;26309;50.924;4.754;2022-12-07T10:10:44;7.10;99.90
40600;DHT22;26309;50.924;4.754;2022-12-07T10:13:11;6.90;99.90
40600;DHT22;26309;50.924;4.754;2022-12-07T10:15:57;6.90;99.90
40600;DHT22;26309;50.924;4.754;2022-12-07T10:18:29;7.10;99.90
40600;DHT22;26309;50.924;4.754;2022-12-07T10:21:05;7.20;99.90
40600;DHT22;26309;50.924;4.754;2022-12-07T10:23:33;7.40;99.90
40600;DHT22;26309;50.924;4.754;2022-12-07T10:26:35;7.50;99.90
40600;DHT22;26309;50.924;4.754;2022-12-07T10:31:42;7.60;99.90
40600;DHT22;26309;50.924;4.754;2022-12-07T10:34:30;7.70;99.90
40600;DHT22;26309;50.924;4.754;2022-12-07T10:39:53;8.00;99.90
40600;DHT22;26309;50.924;4.754;2022-12-07T10:42:31;7.90;99.90
40600;DHT22;26309;50.924;4.754;2022-12-07T10:45:26;7.90;99.90
40600;DHT22;26309;50.924;4.754;2022-12-07T10:51:01;7.60;99.90
40600;DHT22;26309;50.924;4.754;2022-12-07T11:00:17;7.70;99.90
40600;DHT22;26309;50.924;4.754;2022-12-07T11:06:01;7.40;99.90
40600;DHT22;26309;50.924;4.754;2022-12-07T11:08:52;7.60;99.90
40600;DHT22;26309;50.924;4.754;2022-12-07T11:17:04;7.50;99.90
40600;DHT22;26309;50.924;4.754;2022-12-07T11:25:31;7.50;99.90
40600;DHT22;26309;50.924;4.754;2022-12-07T11:42:00;7.80;99.90
40600;DHT22;26309;50.924;4.754;2022-12-07T11:44:44;7.70;99.90
40600;DHT22;26309;50.924;4.754;2022-12-07T11:47:24;7.70;99.90
40600;DHT22;26309;50.924;4.754;2022-12-07T12:03:47;8.50;99.90
40600;DHT22;26309;50.924;4.754;2022-12-07T12:06:14;8.70;99.90
40600;DHT22;26309;50.924;4.754;2022-12-07T12:08:44;8.40;99.90
40600;DHT22;26309;50.924;4.754;2022-12-07T12:11:19;8.20;99.90
40600;DHT22;26309;50.924;4.754;2022-12-07T12:14:26;8.30;99.90
40600;DHT22;26309;50.924;4.754;2022-12-07T12:22:20;7.60;99.90
40600;DHT22;26309;50.924;4.754;2022-12-07T12:24:52;7.70;99.90
40600;DHT22;26309;50.924;4.754;2022-12-07T12:27:30;8.00;99.90
40600;DHT22;26309;50.924;4.754;2022-12-07T12:30:23;7.90;99.90
40600;DHT22;26309;50.924;4.754;2022-12-07T12:32:50;7.80;99.90
40600;DHT22;26309;50.924;4.754;2022-12-07T12:35:35;7.90;99.90
40600;DHT22;26309;50.924;4.754;2022-12-07T12:40:45;7.90;99.90
40600;DHT22;26309;50.924;4.754;2022-12-07T12:43:51;7.90;99.90
40600;DHT22;26309;50.924;4.754;2022-12-07T12:51:52;8.10;99.90
40600;DHT22;26309;50.924;4.754;2022-12-07T12:54:22;8.20;99.90
40600;DHT22;26309;50.924;4.754;2022-12-07T12:59:56;8.50;99.90
40600;DHT22;26309;50.924;4.754;2022-12-07T13:15:41;8.70;99.90
40600;DHT22;26309;50.924;4.754;2022-12-07T13:18:46;8.30;99.90
40600;DHT22;26309;50.924;4.754;2022-12-07T13:26:20;8.30;99.90
40600;DHT22;26309;50.924;4.754;2022-12-07T13:28:50;8.50;99.90
40600;DHT22;26309;50.924;4.754;2022-12-07T13:33:46;8.50;99.90
40600;DHT22;26309;50.924;4.754;2022-12-07T13:36:19;8.40;99.90
40600;DHT22;26309;50.924;4.754;2022-12-07T13:38:55;8.30;99.90
40600;DHT22;26309;50.924;4.754;2022-12-07T13:41:26;8.00;99.90
40600;DHT22;26309;50.924;4.754;2022-12-07T13:44:07;8.00;99.90
40600;DHT22;26309;50.924;4.754;2022-12-07T13:49:56;7.70;99.90
40600;DHT22;26309;50.924;4.754;2022-12-07T13:52:25;7.40;99.90
40600;DHT22;26309;50.924;4.754;2022-12-07T13:57:32;7.70;99.90
40600;DHT22;26309;50.924;4.754;2022-12-07T14:00:05;7.50;99.90
40600;DHT22;26309;50.924;4.754;2022-12-07T14:02:34;7.60;99.90
40600;DHT22;26309;50.924;4.754;2022-12-07T14:07:53;7.50;99.90
40600;DHT22;26309;50.924;4.754;2022-12-07T14:10:28;7.50;99.90
40600;DHT22;26309;50.924;4.754;2022-12-07T14:12:55;7.40;99.90
40600;DHT22;26309;50.924;4.754;2022-12-07T14:15:27;7.40;99.90
40600;DHT22;26309;50.924;4.754;2022-12-07T14:17:55;7.40;99.90
40600;DHT22;26309;50.924;4.754;2022-12-07T14:20:38;7.20;99.90
40600;DHT22;26309;50.924;4.754;2022-12-07T14:23:20;7.10;99.90
40600;DHT22;26309;50.924;4.754;2022-12-07T14:25:51;7.00;99.90
40600;DHT22;26309;50.924;4.754;2022-12-07T14:28:29;7.00;99.90
40600;DHT22;26309;50.924;4.754;2022-12-07T14:30:55;6.90;99.90
40600;DHT22;26309;50.924;4.754;2022-12-07T14:33:22;6.80;99.90
40600;DHT22;26309;50.924;4.754;2022-12-07T14:35:50;6.80;99.90
40600;DHT22;26309;50.924;4.754;2022-12-07T14:38:21;6.80;99.90
40600;DHT22;26309;50.924;4.754;2022-12-07T14:40:47;6.90;99.90
40600;DHT22;26309;50.924;4.754;2022-12-07T14:43:15;6.70;99.90
40600;DHT22;26309;50.924;4.754;2022-12-07T14:45:42;6.60;99.90
40600;DHT22;26309;50.924;4.754;2022-12-07T14:48:14;6.30;99.90
40600;DHT22;26309;50.924;4.754;2022-12-07T14:50:43;6.30;99.90
40600;DHT22;26309;50.924;4.754;2022-12-07T14:53:13;6.40;99.90
40600;DHT22;26309;50.924;4.754;2022-12-07T14:55:40;6.50;99.90
40600;DHT22;26309;50.924;4.754;2022-12-07T14:58:13;6.60;99.90
40600;DHT22;26309;50.924;4.754;2022-12-07T15:00:39;6.60;99.90
40600;DHT22;26309;50.924;4.754;2022-12-07T15:03:05;6.60;99.90
40600;DHT22;26309;50.924;4.754;2022-12-07T15:05:31;6.70;99.90
40600;DHT22;26309;50.924;4.754;2022-12-07T15:07:58;6.60;99.90
40600;DHT22;26309;50.924;4.754;2022-12-07T15:10:27;6.70;99.90
40600;DHT22;26309;50.924;4.754;2022-12-07T15:13:01;6.80;99.90
40600;DHT22;26309;50.924;4.754;2022-12-07T15:15:51;6.90;99.90
40600;DHT22;26309;50.924;4.754;2022-12-07T15:18:19;7.00;99.90
40600;DHT22;26309;50.924;4.754;2022-12-07T15:20:46;7.00;99.90
40600;DHT22;26309;50.924;4.754;2022-12-07T15:23:12;7.00;99.90
40600;DHT22;26309;50.924;4.754;2022-12-07T15:25:42;7.10;99.90
40600;DHT22;26309;50.924;4.754;2022-12-07T15:28:08;7.00;99.90
40600;DHT22;26309;50.924;4.754;2022-12-07T15:30:36;6.90;99.90
40600;DHT22;26309;50.924;4.754;2022-12-07T15:33:02;6.60;99.90
40600;DHT22;26309;50.924;4.754;2022-12-07T15:35:28;6.50;99.90
40600;DHT22;26309;50.924;4.754;2022-12-07T15:37:56;6.50;99.90
40600;DHT22;26309;50.924;4.754;2022-12-07T15:40:21;6.60;99.90
40600;DHT22;26309;50.924;4.754;2022-12-07T15:42:47;6.40;99.90
40600;DHT22;26309;50.924;4.754;2022-12-07T15:45:13;6.40;99.90
40600;DHT22;26309;50.924;4.754;2022-12-07T15:47:41;6.20;99.90
40600;DHT22;26309;50.924;4.754;2022-12-07T15:50:11;6.30;99.90
40600;DHT22;26309;50.924;4.754;2022-12-07T15:52:38;6.20;99.90
40600;DHT22;26309;50.924;4.754;2022-12-07T15:55:04;6.30;99.90
40600;DHT22;26309;50.924;4.754;2022-12-07T15:57:31;6.30;99.90
40600;DHT22;26309;50.924;4.754;2022-12-07T15:59:57;6.20;99.90
40600;DHT22;26309;50.924;4.754;2022-12-07T16:02:24;6.20;99.90
40600;DHT22;26309;50.924;4.754;2022-12-07T16:04:51;6.30;99.90
40600;DHT22;26309;50.924;4.754;2022-12-07T16:07:17;6.50;99.90
40600;DHT22;26309;50.924;4.754;2022-12-07T16:09:45;6.60;99.90
40600;DHT22;26309;50.924;4.754;2022-12-07T16:12:12;6.50;99.90
40600;DHT22;26309;50.924;4.754;2022-12-07T16:14:40;6.50;99.90
40600;DHT22;26309;50.924;4.754;2022-12-07T16:17:07;6.50;99.90
40600;DHT22;26309;50.924;4.754;2022-12-07T16:19:33;6.30;99.90
40600;DHT22;26309;50.924;4.754;2022-12-07T16:22:00;6.30;99.90
40600;DHT22;26309;50.924;4.754;2022-12-07T16:24:26;6.30;99.90
40600;DHT22;26309;50.924;4.754;2022-12-07T16:26:52;6.30;99.90
40600;DHT22;26309;50.924;4.754;2022-12-07T16:29:20;6.30;99.90
40600;DHT22;26309;50.924;4.754;2022-12-07T16:31:46;6.30;99.90
40600;DHT22;26309;50.924;4.754;2022-12-07T16:34:13;6.20;99.90
40600;DHT22;26309;50.924;4.754;2022-12-07T16:36:41;6.30;99.90
40600;DHT22;26309;50.924;4.754;2022-12-07T16:39:09;6.30;99.90
40600;DHT22;26309;50.924;4.754;2022-12-07T16:41:35;6.40;99.90
40600;DHT22;26309;50.924;4.754;2022-12-07T16:44:06;6.30;99.90
40600;DHT22;26309;50.924;4.754;2022-12-07T16:46:33;6.40;99.90
40600;DHT22;26309;50.924;4.754;2022-12-07T16:48:59;6.40;99.90
40600;DHT22;26309;50.924;4.754;2022-12-07T16:51:25;6.40;99.90
40600;DHT22;26309;50.924;4.754;2022-12-07T16:53:52;6.30;99.90
40600;DHT22;26309;50.924;4.754;2022-12-07T16:56:18;6.20;99.90
40600;DHT22;26309;50.924;4.754;2022-12-07T16:58:44;6.20;99.90
40600;DHT22;26309;50.924;4.754;2022-12-07T17:01:14;6.20;99.90
40600;DHT22;26309;50.924;4.754;2022-12-07T17:03:41;6.20;99.90
40600;DHT22;26309;50.924;4.754;2022-12-07T17:06:27;6.10;99.90
40600;DHT22;26309;50.924;4.754;2022-12-07T17:08:56;6.20;99.90
40600;DHT22;26309;50.924;4.754;2022-12-07T17:11:28;6.30;99.90
40600;DHT22;26309;50.924;4.754;2022-12-07T17:13:54;6.30;99.90
40600;DHT22;26309;50.924;4.754;2022-12-07T17:16:39;6.40;99.90
40600;DHT22;26309;50.924;4.754;2022-12-07T17:19:09;6.40;99.90
40600;DHT22;26309;50.924;4.754;2022-12-07T17:21:36;6.50;99.90
40600;DHT22;26309;50.924;4.754;2022-12-07T17:24:04;6.50;99.90
40600;DHT22;26309;50.924;4.754;2022-12-07T17:26:31;6.50;99.90
40600;DHT22;26309;50.924;4.754;2022-12-07T17:28:57;6.40;99.90
40600;DHT22;26309;50.924;4.754;2022-12-07T17:31:24;6.30;99.90
40600;DHT22;26309;50.924;4.754;2022-12-07T17:33:50;6.30;99.90
40600;DHT22;26309;50.924;4.754;2022-12-07T17:36:19;6.40;99.90
40600;DHT22;26309;50.924;4.754;2022-12-07T17:38:45;6.40;99.90
40600;DHT22;26309;50.924;4.754;2022-12-07T17:41:25;6.30;99.90
40600;DHT22;26309;50.924;4.754;2022-12-07T17:44:15;6.10;99.90
40600;DHT22;26309;50.924;4.754;2022-12-07T17:46:42;6.20;99.90
40600;DHT22;26309;50.924;4.754;2022-12-07T17:49:08;6.40;99.90
40600;DHT22;26309;50.924;4.754;2022-12-07T17:51:34;6.30;99.90
40600;DHT22;26309;50.924;4.754;2022-12-07T17:54:19;6.20;99.90
40600;DHT22;26309;50.924;4.754;2022-12-07T17:56:45;6.40;99.90
40600;DHT22;26309;50.924;4.754;2022-12-07T17:59:11;6.40;99.90
40600;DHT22;26309;50.924;4.754;2022-12-07T18:01:38;6.50;99.90
40600;DHT22;26309;50.924;4.754;2022-12-07T18:04:04;6.40;99.90
40600;DHT22;26309;50.924;4.754;2022-12-07T18:06:31;6.10;99.90
40600;DHT22;26309;50.924;4.754;2022-12-07T18:08:57;6.10;99.90
40600;DHT22;26309;50.924;4.754;2022-12-07T18:11:24;6.10;99.90
40600;DHT22;26309;50.924;4.754;2022-12-07T18:13:50;6.10;99.90
40600;DHT22;26309;50.924;4.754;2022-12-07T18:16:19;6.20;99.90
40600;DHT22;26309;50.924;4.754;2022-12-07T18:18:46;6.30;99.90
40600;DHT22;26309;50.924;4.754;2022-12-07T18:21:18;6.50;99.90
40600;DHT22;26309;50.924;4.754;2022-12-07T18:23:46;6.40;99.90
40600;DHT22;26309;50.924;4.754;2022-12-07T18:26:12;6.20;99.90
40600;DHT22;26309;50.924;4.754;2022-12-07T18:28:39;6.30;99.90
40600;DHT22;26309;50.924;4.754;2022-12-07T18:31:05;6.40;99.90
40600;DHT22;26309;50.924;4.754;2022-12-07T18:33:31;6.40;99.90